Time;durP1;ratioP1;P1;durP2;ratioP2;P2;SDS_P1;SDS_P2;PMS_P1;PMS_P2;Temp;Humidity;BMP_temperature;BMP_pressure;BME280_temperature;BME280_humidity;BME280_pressure;Samples;Min_cycle;Max_cycle;Signal;HPM_P1;HPM_P2
2022/11/09 00:02:24;;;;;;;;;;;;;;;;;;5079776;28;19929;-49
2022/11/09 00:04:51;;;;;;;;;;;;;;;;;;5080888;28;19928;-51
2022/11/09 00:07:19;;;;;;;;;;;;;;;;;;5080534;28;19929;-53
2022/11/09 00:09:45;;;;;;;;;;;;;;;;;;5080142;28;20439;-51
2022/11/09 00:12:12;;;;;;;;;;;;;;;;;;5080183;28;19932;-51
2022/11/09 00:14:38;;;;;;;;;;;;;;;;;;5081045;28;20373;-54
2022/11/09 00:17:05;;;;;;;;;;;;;;;;;;5080574;28;19931;-52
2022/11/09 00:19:32;;;;;;;;;;;;;;;;;;5080690;28;19951;-53
2022/11/09 00:21:58;;;;;;;;;;;;;;;;;;5080761;28;19935;-51
2022/11/09 00:24:26;;;;;;;;;;;;;;;;;;5080613;28;19924;-50
2022/11/09 00:26:53;;;;;;;;;;;;;;;;;;5080087;28;19929;-54
2022/11/09 00:29:19;;;;;;;;;;;;;;;;;;5078877;28;19924;-52
2022/11/09 00:31:46;;;;;;;;;;;;;;;;;;5080129;28;19924;-54
2022/11/09 00:34:13;;;;;;;;;;;;;;;;;;5079989;28;19924;-53
2022/11/09 00:36:39;;;;;;;;;;;;;;;;;;5080511;28;20357;-52
2022/11/09 00:39:08;;;;;;;;;;;;;;;;;;5079796;28;19931;-51
2022/11/09 00:41:36;;;;;;;;;;;;;;;;;;5078406;28;19929;-50
2022/11/09 00:44:02;;;;;;;;;;;;;;;;;;5080135;28;19924;-51
2022/11/09 00:46:29;;;;;;;;;;;;;;;;;;5080214;28;19989;-54
2022/11/09 00:48:56;;;;;;;;;;;;;;;;;;5080315;28;19928;-54
2022/11/09 00:51:22;;;;;;;;;;;;;;;;;;5080452;28;19924;-54
2022/11/09 00:53:53;;;;;;;;;;;;;;;;;;5079760;28;19925;-50
2022/11/09 00:56:19;;;;;;;;;;;;;;;;;;5080787;28;19932;-52
2022/11/09 00:58:47;;;;;;;;;;;;;;;;;;5080478;28;20023;-52
2022/11/09 01:01:15;;;;;;;;;;;;;;;;;;5080741;28;19924;-55
2022/11/09 01:03:42;;;;;;;;;;;;;;;;;;5071944;28;19929;-54
2022/11/09 01:06:08;;;;;;;;;;;;;;;;;;5060061;28;19929;-54
2022/11/09 01:08:35;;;;;;;;;;;;;;;;;;5071648;28;19977;-52
2022/11/09 01:11:05;;;;;;;;;;;;;;;;;;5080908;28;19952;-51
2022/11/09 01:13:31;;;;;;;;;;;;;;;;;;5079543;28;19935;-53
2022/11/09 01:15:59;;;;;;;;;;;;;;;;;;5080473;28;19925;-51
2022/11/09 01:18:26;;;;;;;;;;;;;;;;;;5080320;28;19925;-54
2022/11/09 01:20:52;;;;;;;;;;;;;;;;;;5080400;28;19966;-54
2022/11/09 01:23:20;;;;;;;;;;;;;;;;;;5080142;28;20357;-52
2022/11/09 01:25:46;;;;;;;;;;;;;;;;;;5080087;28;19925;-50
2022/11/09 01:28:13;;;;;;;;;;;;;;;;;;5079714;28;19925;-52
2022/11/09 01:30:40;;;;;;;;;;;;;;;;;;5079930;28;19925;-53
2022/11/09 01:33:09;;;;;;;;;;;;;;;;;;5094341;28;19978;-50
2022/11/09 01:35:36;;;;;;;;;;;;;;;;;;5095608;28;20001;-55
2022/11/09 01:38:03;;;;;;;;;;;;;;;;;;5083301;28;19925;-52
2022/11/09 01:40:30;;;;;;;;;;;;;;;;;;5071524;28;19925;-52
2022/11/09 01:42:57;;;;;;;;;;;;;;;;;;5076020;28;19960;-51
2022/11/09 01:45:25;;;;;;;;;;;;;;;;;;5078088;28;19924;-50
2022/11/09 01:47:54;;;;;;;;;;;;;;;;;;5078200;28;19974;-54
2022/11/09 01:50:26;;;;;;;;;;;;;;;;;;5077365;28;19931;-50
2022/11/09 01:52:52;;;;;;;;;;;;;;;;;;5077359;28;19935;-52
2022/11/09 01:55:21;;;;;;;;;;;;;;;;;;5078250;28;19928;-52
2022/11/09 01:57:52;;;;;;;;;;;;;;;;;;5077703;28;20015;-53
2022/11/09 02:00:19;;;;;;;;;;;;;;;;;;5077927;28;19925;-51
2022/11/09 02:02:48;;;;;;;;;;;;;;;;;;5076347;28;19924;-50
2022/11/09 02:05:15;;;;;;;;;;;;;;;;;;5057656;28;19991;-50
2022/11/09 02:07:44;;;;;;;;;;;;;;;;;;5074005;28;19950;-50
2022/11/09 02:10:13;;;;;;;;;;;;;;;;;;5077427;28;19967;-50
2022/11/09 02:12:40;;;;;;;;;;;;;;;;;;5077314;28;19924;-51
2022/11/09 02:15:09;;;;;;;;;;;;;;;;;;5077890;28;19970;-50
2022/11/09 02:17:36;;;;;;;;;;;;;;;;;;5077090;28;19970;-54
2022/11/09 02:20:08;;;;;;;;;;;;;;;;;;5077211;28;20383;-53
2022/11/09 02:22:34;;;;;;;;;;;;;;;;;;5077489;28;19946;-52
2022/11/09 02:25:02;;;;;;;;;;;;;;;;;;5077501;28;19924;-51
2022/11/09 02:27:28;;;;;;;;;;;;;;;;;;5077771;28;19924;-50
2022/11/09 02:29:57;;;;;;;;;;;;;;;;;;5076962;28;19947;-50
2022/11/09 02:32:25;;;;;;;;;;;;;;;;;;5077011;28;20431;-52
2022/11/09 02:34:52;;;;;;;;;;;;;;;;;;5077211;28;19955;-53
2022/11/09 02:37:26;;;;;;;;;;;;;;;;;;5076820;28;19925;-50
2022/11/09 02:39:53;;;;;;;;;;;;;;;;;;5076570;28;20381;-50
2022/11/09 02:42:19;;;;;;;;;;;;;;;;;;5076679;28;20411;-50
2022/11/09 02:44:47;;;;;;;;;;;;;;;;;;5076482;28;19986;-52
2022/11/09 02:47:14;;;;;;;;;;;;;;;;;;5077049;28;19925;-51
2022/11/09 02:49:41;;;;;;;;;;;;;;;;;;5076890;28;19924;-51
2022/11/09 02:52:07;;;;;;;;;;;;;;;;;;5076454;28;19924;-53
2022/11/09 02:54:35;;;;;;;;;;;;;;;;;;5075331;28;19983;-51
2022/11/09 02:57:02;;;;;;;;;;;;;;;;;;5076043;28;19928;-52
2022/11/09 02:59:28;;;;;;;;;;;;;;;;;;5076003;28;19924;-51
2022/11/09 03:01:55;;;;;;;;;;;;;;;;;;5076540;28;19924;-50
2022/11/09 03:04:22;;;;;;;;;;;;;;;;;;5062450;28;19937;-50
2022/11/09 03:06:48;;;;;;;;;;;;;;;;;;5073148;28;19924;-51
2022/11/09 03:09:15;;;;;;;;;;;;;;;;;;5075785;28;19924;-51
2022/11/09 03:11:43;;;;;;;;;;;;;;;;;;5075907;28;20396;-51
2022/11/09 03:14:09;;;;;;;;;;;;;;;;;;5076074;28;20404;-50
2022/11/09 03:16:36;;;;;;;;;;;;;;;;;;5076102;28;19924;-52
2022/11/09 03:19:03;;;;;;;;;;;;;;;;;;5075315;28;19935;-51
2022/11/09 03:21:29;;;;;;;;;;;;;;;;;;5075492;28;20371;-51
2022/11/09 03:23:56;;;;;;;;;;;;;;;;;;5075896;28;19931;-50
2022/11/09 03:26:23;;;;;;;;;;;;;;;;;;5075489;28;19932;-50
2022/11/09 03:28:51;;;;;;;;;;;;;;;;;;5075599;28;19924;-50
2022/11/09 03:31:17;;;;;;;;;;;;;;;;;;5074843;28;19932;-50
2022/11/09 03:33:44;;;;;;;;;;;;;;;;;;5075247;28;19929;-52
2022/11/09 03:36:10;;;;;;;;;;;;;;;;;;5075839;28;19925;-49
2022/11/09 03:38:37;;;;;;;;;;;;;;;;;;5075733;28;19974;-53
2022/11/09 03:41:04;;;;;;;;;;;;;;;;;;5056786;28;19951;-52
2022/11/09 03:43:30;;;;;;;;;;;;;;;;;;5075866;28;20460;-49
2022/11/09 03:45:58;;;;;;;;;;;;;;;;;;5075267;28;19925;-50
2022/11/09 03:48:25;;;;;;;;;;;;;;;;;;5075361;28;19924;-50
2022/11/09 03:50:51;;;;;;;;;;;;;;;;;;5075331;28;19931;-53
2022/11/09 03:53:18;;;;;;;;;;;;;;;;;;5074484;28;19932;-49
2022/11/09 03:55:44;;;;;;;;;;;;;;;;;;5074941;28;19931;-51
2022/11/09 03:58:11;;;;;;;;;;;;;;;;;;5075265;28;19928;-51
2022/11/09 04:00:38;;;;;;;;;;;;;;;;;;5075223;28;20020;-52
2022/11/09 04:03:06;;;;;;;;;;;;;;;;;;5074734;28;19924;-50
2022/11/09 04:05:32;;;;;;;;;;;;;;;;;;5074511;28;20187;-53
2022/11/09 04:07:59;;;;;;;;;;;;;;;;;;5075118;28;19978;-50
2022/11/09 04:10:26;;;;;;;;;;;;;;;;;;5075144;28;20366;-54
2022/11/09 04:12:52;;;;;;;;;;;;;;;;;;5074309;28;19979;-53
2022/11/09 04:15:19;;;;;;;;;;;;;;;;;;5075533;28;19978;-50
2022/11/09 04:17:53;;;;;;;;;;;;;;;;;;5075556;28;19940;-52
2022/11/09 04:20:21;;;;;;;;;;;;;;;;;;5075156;28;20009;-51
2022/11/09 04:22:53;;;;;;;;;;;;;;;;;;5058967;28;19924;-52
2022/11/09 04:25:20;;;;;;;;;;;;;;;;;;5063704;28;20451;-51
2022/11/09 04:27:46;;;;;;;;;;;;;;;;;;5074549;28;20353;-52
2022/11/09 04:30:13;;;;;;;;;;;;;;;;;;5074325;28;19929;-51
2022/11/09 04:32:39;;;;;;;;;;;;;;;;;;5074297;28;19957;-51
2022/11/09 04:35:07;;;;;;;;;;;;;;;;;;5073848;28;20274;-50
2022/11/09 04:37:34;;;;;;;;;;;;;;;;;;5075431;28;19928;-52
2022/11/09 04:40:01;;;;;;;;;;;;;;;;;;5075180;28;19970;-53
2022/11/09 04:42:28;;;;;;;;;;;;;;;;;;5075322;28;19931;-51
2022/11/09 04:44:54;;;;;;;;;;;;;;;;;;5074652;28;19929;-50
2022/11/09 04:47:21;;;;;;;;;;;;;;;;;;5075139;28;19946;-52
2022/11/09 04:52:24;;;;;;;;;;;;;;;;;;5088812;28;19924;-55
2022/11/09 04:54:52;;;;;;;;;;;;;;;;;;5091855;28;19924;-53
2022/11/09 04:57:18;;;;;;;;;;;;;;;;;;5092353;28;20357;-53
2022/11/09 04:59:45;;;;;;;;;;;;;;;;;;5074077;28;19939;-53
2022/11/09 05:02:11;;;;;;;;;;;;;;;;;;5072198;28;19951;-52
2022/11/09 05:04:38;;;;;;;;;;;;;;;;;;5071046;28;19924;-51
2022/11/09 05:07:04;;;;;;;;;;;;;;;;;;5071934;28;19999;-52
2022/11/09 05:09:31;;;;;;;;;;;;;;;;;;5071946;28;19925;-52
2022/11/09 05:11:59;;;;;;;;;;;;;;;;;;5072379;28;20113;-53
2022/11/09 05:14:26;;;;;;;;;;;;;;;;;;5071759;28;19932;-52
2022/11/09 05:16:52;;;;;;;;;;;;;;;;;;5073356;28;20000;-52
2022/11/09 05:19:19;;;;;;;;;;;;;;;;;;5075690;28;19929;-53
2022/11/09 05:21:45;;;;;;;;;;;;;;;;;;5075474;28;19931;-51
2022/11/09 05:24:11;;;;;;;;;;;;;;;;;;5075940;28;19924;-55
2022/11/09 05:26:38;;;;;;;;;;;;;;;;;;5075435;28;19928;-54
2022/11/09 05:29:07;;;;;;;;;;;;;;;;;;5075620;28;19924;-50
2022/11/09 05:31:34;;;;;;;;;;;;;;;;;;5075614;28;19924;-54
2022/11/09 05:34:00;;;;;;;;;;;;;;;;;;5075281;28;19931;-52
2022/11/09 05:36:28;;;;;;;;;;;;;;;;;;5075306;28;19926;-53
2022/11/09 05:38:55;;;;;;;;;;;;;;;;;;5075313;28;19925;-53
2022/11/09 05:41:21;;;;;;;;;;;;;;;;;;5075240;28;19928;-55
2022/11/09 05:43:48;;;;;;;;;;;;;;;;;;5075098;28;19925;-51
2022/11/09 05:46:16;;;;;;;;;;;;;;;;;;5074814;28;19978;-52
2022/11/09 05:48:43;;;;;;;;;;;;;;;;;;5075036;28;19932;-55
2022/11/09 05:51:11;;;;;;;;;;;;;;;;;;5074830;28;19932;-56
2022/11/09 05:53:37;;;;;;;;;;;;;;;;;;5075013;28;19932;-55
2022/11/09 05:56:05;;;;;;;;;;;;;;;;;;5074665;28;19929;-53
2022/11/09 05:58:35;;;;;;;;;;;;;;;;;;5075204;28;20392;-50
2022/11/09 06:01:02;;;;;;;;;;;;;;;;;;5074668;28;19925;-53
2022/11/09 06:03:29;;;;;;;;;;;;;;;;;;5074733;28;19977;-53
2022/11/09 06:05:59;;;;;;;;;;;;;;;;;;5074976;28;19932;-57
2022/11/09 06:08:26;;;;;;;;;;;;;;;;;;5073682;28;19924;-55
2022/11/09 06:10:57;;;;;;;;;;;;;;;;;;5075079;28;19932;-54
2022/11/09 06:13:23;;;;;;;;;;;;;;;;;;5074326;28;19931;-51
2022/11/09 06:15:52;;;;;;;;;;;;;;;;;;5074826;28;20304;-52
2022/11/09 06:18:19;;;;;;;;;;;;;;;;;;5074486;28;20335;-52
2022/11/09 06:20:47;;;;;;;;;;;;;;;;;;5074517;28;19968;-52
2022/11/09 06:23:13;;;;;;;;;;;;;;;;;;5074774;28;19924;-50
2022/11/09 06:25:40;;;;;;;;;;;;;;;;;;5074471;28;19932;-55
2022/11/09 06:28:07;;;;;;;;;;;;;;;;;;5072652;28;19964;-54
2022/11/09 06:30:33;;;;;;;;;;;;;;;;;;5074415;28;19932;-52
2022/11/09 06:33:00;;;;;;;;;;;;;;;;;;5074991;28;19966;-51
2022/11/09 06:35:27;;;;;;;;;;;;;;;;;;5074830;28;19931;-53
2022/11/09 06:37:57;;;;;;;;;;;;;;;;;;5074250;28;20123;-54
2022/11/09 06:40:23;;;;;;;;;;;;;;;;;;5074428;28;20003;-53
2022/11/09 06:42:50;;;;;;;;;;;;;;;;;;5074437;28;19952;-54
2022/11/09 06:45:16;;;;;;;;;;;;;;;;;;5074174;28;19925;-57
2022/11/09 06:47:43;;;;;;;;;;;;;;;;;;5073707;28;20266;-52
2022/11/09 06:50:11;;;;;;;;;;;;;;;;;;5074210;28;19970;-54
2022/11/09 06:52:37;;;;;;;;;;;;;;;;;;5074429;28;19928;-52
2022/11/09 06:55:07;;;;;;;;;;;;;;;;;;5074497;28;20157;-51
2022/11/09 06:57:33;;;;;;;;;;;;;;;;;;5074257;28;20015;-53
2022/11/09 07:00:00;;;;;;;;;;;;;;;;;;5074081;28;19979;-51
2022/11/09 07:02:26;;;;;;;;;;;;;;;;;;5074085;28;19956;-54
2022/11/09 07:04:53;;;;;;;;;;;;;;;;;;5075555;28;20385;-58
2022/11/09 07:07:19;;;;;;;;;;;;;;;;;;5073583;28;20361;-56
2022/11/09 07:09:46;;;;;;;;;;;;;;;;;;5073606;28;19932;-55
2022/11/09 07:12:14;;;;;;;;;;;;;;;;;;5073536;28;19924;-53
2022/11/09 07:14:41;;;;;;;;;;;;;;;;;;5073275;28;19965;-54
2022/11/09 07:17:08;;;;;;;;;;;;;;;;;;5073979;28;19925;-55
2022/11/09 07:19:34;;;;;;;;;;;;;;;;;;5073104;28;19925;-58
2022/11/09 07:22:01;;;;;;;;;;;;;;;;;;5073633;28;19936;-54
2022/11/09 07:24:27;;;;;;;;;;;;;;;;;;5073267;28;19925;-56
2022/11/09 07:26:54;;;;;;;;;;;;;;;;;;5073160;28;19925;-52
2022/11/09 07:29:22;;;;;;;;;;;;;;;;;;5073018;28;19932;-56
2022/11/09 07:31:48;;;;;;;;;;;;;;;;;;5072914;28;19925;-55
2022/11/09 07:34:15;;;;;;;;;;;;;;;;;;5073275;28;19928;-51
2022/11/09 07:36:42;;;;;;;;;;;;;;;;;;5072804;28;20373;-54
2022/11/09 07:39:08;;;;;;;;;;;;;;;;;;5072632;28;20279;-56
2022/11/09 07:41:35;;;;;;;;;;;;;;;;;;5072841;28;20340;-58
2022/11/09 07:44:01;;;;;;;;;;;;;;;;;;5073376;28;19924;-56
2022/11/09 07:46:29;;;;;;;;;;;;;;;;;;5072971;28;19971;-56
2022/11/09 07:48:56;;;;;;;;;;;;;;;;;;5072391;28;19925;-58
2022/11/09 07:51:22;;;;;;;;;;;;;;;;;;5072587;28;19932;-55
2022/11/09 07:53:49;;;;;;;;;;;;;;;;;;5072621;28;19978;-57
2022/11/09 07:56:15;;;;;;;;;;;;;;;;;;5072762;28;19928;-56
2022/11/09 07:58:42;;;;;;;;;;;;;;;;;;5070396;28;19928;-56
2022/11/09 08:01:09;;;;;;;;;;;;;;;;;;5070017;28;20297;-55
2022/11/09 08:03:37;;;;;;;;;;;;;;;;;;5070944;28;20374;-56
2022/11/09 08:06:04;;;;;;;;;;;;;;;;;;5070601;28;19924;-50
2022/11/09 08:08:30;;;;;;;;;;;;;;;;;;5070791;28;19924;-52
2022/11/09 08:10:57;;;;;;;;;;;;;;;;;;5070443;28;19924;-56
2022/11/09 08:13:24;;;;;;;;;;;;;;;;;;5070728;28;19928;-54
2022/11/09 08:15:51;;;;;;;;;;;;;;;;;;5070774;28;19933;-57
2022/11/09 08:18:18;;;;;;;;;;;;;;;;;;5071000;28;20373;-53
2022/11/09 08:20:46;;;;;;;;;;;;;;;;;;5070707;28;19925;-55
2022/11/09 08:23:13;;;;;;;;;;;;;;;;;;5071047;28;19928;-55
2022/11/09 08:25:39;;;;;;;;;;;;;;;;;;5070647;28;19928;-57
2022/11/09 08:28:06;;;;;;;;;;;;;;;;;;5070397;28;19928;-59
2022/11/09 08:30:33;;;;;;;;;;;;;;;;;;5070637;28;20397;-54
2022/11/09 08:33:00;;;;;;;;;;;;;;;;;;5070559;28;20381;-55
2022/11/09 08:35:27;;;;;;;;;;;;;;;;;;5071313;28;19925;-55
2022/11/09 08:37:55;;;;;;;;;;;;;;;;;;5071142;28;19928;-54
2022/11/09 08:40:23;;;;;;;;;;;;;;;;;;5071086;28;19941;-55
2022/11/09 08:42:50;;;;;;;;;;;;;;;;;;5070111;28;19924;-57
2022/11/09 08:45:16;;;;;;;;;;;;;;;;;;5068992;28;19925;-57
2022/11/09 08:47:43;;;;;;;;;;;;;;;;;;5069370;28;20011;-55
2022/11/09 08:50:10;;;;;;;;;;;;;;;;;;5078810;28;19924;-53
2022/11/09 08:52:37;;;;;;;;;;;;;;;;;;5092746;28;19936;-55
2022/11/09 08:55:06;;;;;;;;;;;;;;;;;;5073996;28;20292;-55
2022/11/09 08:57:33;;;;;;;;;;;;;;;;;;5073863;28;19977;-57
2022/11/09 09:00:00;;;;;;;;;;;;;;;;;;5074230;28;19924;-57
2022/11/09 09:02:26;;;;;;;;;;;;;;;;;;5074562;28;19924;-57
2022/11/09 09:04:53;;;;;;;;;;;;;;;;;;5073962;28;19924;-54
2022/11/09 09:07:19;;;;;;;;;;;;;;;;;;5074043;28;19924;-56
2022/11/09 09:09:46;;;;;;;;;;;;;;;;;;5073830;28;19979;-56
2022/11/09 09:12:14;;;;;;;;;;;;;;;;;;5073812;28;20367;-55
2022/11/09 09:14:41;;;;;;;;;;;;;;;;;;5073191;28;20343;-64
2022/11/09 09:17:08;;;;;;;;;;;;;;;;;;5073972;28;19928;-57
2022/11/09 09:19:34;;;;;;;;;;;;;;;;;;5073098;28;20373;-56
2022/11/09 09:22:01;;;;;;;;;;;;;;;;;;5073308;28;19929;-55
2022/11/09 09:24:28;;;;;;;;;;;;;;;;;;5073169;28;19987;-66
2022/11/09 09:26:54;;;;;;;;;;;;;;;;;;5074117;28;19970;-52
2022/11/09 09:29:22;;;;;;;;;;;;;;;;;;5073513;28;19929;-60
2022/11/09 09:31:49;;;;;;;;;;;;;;;;;;5073586;28;19989;-57
2022/11/09 09:34:15;;;;;;;;;;;;;;;;;;5072758;28;19935;-57
2022/11/09 09:36:42;;;;;;;;;;;;;;;;;;5073399;28;19925;-57
2022/11/09 09:39:09;;;;;;;;;;;;;;;;;;5073304;28;19935;-54
2022/11/09 09:41:37;;;;;;;;;;;;;;;;;;5073270;28;19932;-56
2022/11/09 09:44:12;;;;;;;;;;;;;;;;;;5072949;28;20133;-57
2022/11/09 09:46:43;;;;;;;;;;;;;;;;;;5073311;28;19925;-54
2022/11/09 09:49:12;;;;;;;;;;;;;;;;;;5073613;28;19925;-56
2022/11/09 09:51:41;;;;;;;;;;;;;;;;;;5072921;28;20386;-55
2022/11/09 09:54:11;;;;;;;;;;;;;;;;;;5073392;28;19932;-53
2022/11/09 09:56:39;;;;;;;;;;;;;;;;;;5073290;28;19925;-58
2022/11/09 09:59:10;;;;;;;;;;;;;;;;;;5072903;28;19924;-55
2022/11/09 10:01:37;;;;;;;;;;;;;;;;;;5073028;28;19924;-56
2022/11/09 10:04:14;;;;;;;;;;;;;;;;;;5072565;28;20384;-55
2022/11/09 10:06:45;;;;;;;;;;;;;;;;;;5073401;28;20603;-55
2022/11/09 10:09:19;;;;;;;;;;;;;;;;;;5072717;28;19924;-56
2022/11/09 10:11:50;;;;;;;;;;;;;;;;;;5073853;28;20371;-56
2022/11/09 10:14:28;;;;;;;;;;;;;;;;;;5072945;28;20384;-53
2022/11/09 10:16:59;;;;;;;;;;;;;;;;;;5073206;28;20267;-49
2022/11/09 10:19:32;;;;;;;;;;;;;;;;;;5073069;28;19978;-55
2022/11/09 10:22:03;;;;;;;;;;;;;;;;;;5073143;28;19925;-55
2022/11/09 10:24:35;;;;;;;;;;;;;;;;;;5073015;28;19932;-56
2022/11/09 10:27:09;;;;;;;;;;;;;;;;;;5073007;28;19935;-56
2022/11/09 10:29:37;;;;;;;;;;;;;;;;;;5071774;28;19936;-52
2022/11/09 10:32:09;;;;;;;;;;;;;;;;;;5075884;28;20365;-55
2022/11/09 10:34:40;;;;;;;;;;;;;;;;;;5072841;28;19932;-54
2022/11/09 10:37:10;;;;;;;;;;;;;;;;;;5073293;28;20336;-55
2022/11/09 10:39:40;;;;;;;;;;;;;;;;;;5072909;28;19936;-56
2022/11/09 10:42:09;;;;;;;;;;;;;;;;;;5072455;28;20016;-56
2022/11/09 10:44:36;;;;;;;;;;;;;;;;;;5072250;28;20290;-58
2022/11/09 10:47:04;;;;;;;;;;;;;;;;;;5071940;28;19932;-53
2022/11/09 10:49:32;;;;;;;;;;;;;;;;;;5072487;28;19924;-56
2022/11/09 10:52:00;;;;;;;;;;;;;;;;;;5072241;28;19966;-57
2022/11/09 10:54:30;;;;;;;;;;;;;;;;;;5058460;28;19932;-52
2022/11/09 10:57:00;;;;;;;;;;;;;;;;;;5052686;28;19924;-56
2022/11/09 10:59:32;;;;;;;;;;;;;;;;;;5052044;28;19982;-56
2022/11/09 11:01:58;;;;;;;;;;;;;;;;;;5063600;28;19985;-56
2022/11/09 11:04:25;;;;;;;;;;;;;;;;;;5071920;28;19928;-52
2022/11/09 11:06:52;;;;;;;;;;;;;;;;;;5072053;28;19951;-55
2022/11/09 11:09:22;;;;;;;;;;;;;;;;;;5071827;28;19924;-58
2022/11/09 11:11:48;;;;;;;;;;;;;;;;;;5072257;28;19981;-57
2022/11/09 11:14:16;;;;;;;;;;;;;;;;;;5071463;28;19924;-57
2022/11/09 11:16:43;;;;;;;;;;;;;;;;;;5094969;22;19935;-79
2022/11/09 11:19:25;;;;;;;;;;;;;;;;;;5098527;28;19997;-78
2022/11/09 11:22:06;;;;;;;;;;;;;;;;;;5092070;28;19959;-78
2022/11/09 11:24:42;;;;;;;;;;;;;;;;;;5106364;28;19946;-79
2022/11/09 11:27:10;;;;;;;;;;;;;;;;;;5088452;28;19925;-79
2022/11/09 11:29:43;;;;;;;;;;;;;;;;;;5078474;28;19939;-81
2022/11/09 11:32:11;;;;;;;;;;;;;;;;;;5079748;28;19971;-81
2022/11/09 11:34:39;;;;;;;;;;;;;;;;;;5079954;28;19985;-81
2022/11/09 11:37:09;;;;;;;;;;;;;;;;;;5055846;28;20305;-79
2022/11/09 11:39:47;;;;;;;;;;;;;;;;;;5057175;28;19931;-80
2022/11/09 11:42:43;;;;;;;;;;;;;;;;;;5073777;28;19982;-80
2022/11/09 11:45:16;;;;;;;;;;;;;;;;;;5030734;28;19925;-80
2022/11/09 11:47:52;;;;;;;;;;;;;;;;;;5065659;28;19960;-79
2022/11/09 11:50:30;;;;;;;;;;;;;;;;;;5073544;28;19924;-83
2022/11/09 11:53:13;;;;;;;;;;;;;;;;;;5074578;28;19943;-80
2022/11/09 11:55:52;;;;;;;;;;;;;;;;;;5073742;28;20311;-80
2022/11/09 11:58:28;;;;;;;;;;;;;;;;;;5074295;28;20024;-80
2022/11/09 12:00:57;;;;;;;;;;;;;;;;;;5073719;28;19924;-81
2022/11/09 12:03:32;;;;;;;;;;;;;;;;;;5073576;28;19933;-81
2022/11/09 12:06:05;;;;;;;;;;;;;;;;;;5072875;28;20440;-80
2022/11/09 12:08:38;;;;;;;;;;;;;;;;;;5073308;28;20014;-81
2022/11/09 12:11:10;;;;;;;;;;;;;;;;;;5073149;28;19975;-81
2022/11/09 12:13:50;;;;;;;;;;;;;;;;;;5072989;28;19978;-80
2022/11/09 12:16:22;;;;;;;;;;;;;;;;;;5071968;28;19932;-81
2022/11/09 12:18:53;;;;;;;;;;;;;;;;;;5072431;28;19989;-81
2022/11/09 12:21:25;;;;;;;;;;;;;;;;;;5073264;28;20395;-81
2022/11/09 12:24:01;;;;;;;;;;;;;;;;;;5072505;28;20011;-81
2022/11/09 12:26:36;;;;;;;;;;;;;;;;;;5072681;28;19928;-81
2022/11/09 12:29:07;;;;;;;;;;;;;;;;;;5072708;28;19931;-80
2022/11/09 12:31:40;;;;;;;;;;;;;;;;;;5073280;28;19924;-80
2022/11/09 12:34:10;;;;;;;;;;;;;;;;;;5072548;28;20436;-80
2022/11/09 12:36:38;;;;;;;;;;;;;;;;;;5073259;28;20370;-80
2022/11/09 12:39:07;;;;;;;;;;;;;;;;;;5073691;28;20454;-81
2022/11/09 12:41:36;;;;;;;;;;;;;;;;;;5072803;28;19924;-83
2022/11/09 12:44:05;;;;;;;;;;;;;;;;;;5079727;28;19947;-83
2022/11/09 12:46:35;;;;;;;;;;;;;;;;;;5074523;28;19959;-83
2022/11/09 12:49:03;;;;;;;;;;;;;;;;;;5076069;28;19960;-81
2022/11/09 12:51:30;;;;;;;;;;;;;;;;;;5075446;28;19932;-82
2022/11/09 12:53:57;;;;;;;;;;;;;;;;;;5076513;28;20267;-82
2022/11/09 12:56:25;;;;;;;;;;;;;;;;;;5076559;28;19925;-82
2022/11/09 12:59:13;;;;;;;;;;;;;;;;;;5077594;28;20495;-82
2022/11/09 13:01:47;;;;;;;;;;;;;;;;;;5076679;28;19924;-83
2022/11/09 13:04:17;;;;;;;;;;;;;;;;;;5075363;28;19951;-81
2022/11/09 13:07:03;;;;;;;;;;;;;;;;;;5076054;28;19924;-84
2022/11/09 13:09:30;;;;;;;;;;;;;;;;;;5076463;28;19932;-82
2022/11/09 13:11:57;;;;;;;;;;;;;;;;;;5076651;28;19940;-83
2022/11/09 13:14:32;;;;;;;;;;;;;;;;;;5076137;28;19924;-83
2022/11/09 13:17:00;;;;;;;;;;;;;;;;;;5077718;28;19929;-83
2022/11/09 13:19:45;;;;;;;;;;;;;;;;;;5075922;28;19924;-83
2022/11/09 13:22:26;;;;;;;;;;;;;;;;;;5075048;28;20721;-83
2022/11/09 13:24:54;;;;;;;;;;;;;;;;;;5074607;28;20272;-83
2022/11/09 13:27:37;;;;;;;;;;;;;;;;;;5076487;28;19971;-83
2022/11/09 13:30:32;;;;;;;;;;;;;;;;;;5076481;28;19980;-83
2022/11/09 13:33:17;;;;;;;;;;;;;;;;;;5076098;28;20019;-83
2022/11/09 13:36:02;;;;;;;;;;;;;;;;;;5076552;28;19925;-82
2022/11/09 13:38:29;;;;;;;;;;;;;;;;;;5068055;28;19999;-79
2022/11/09 13:40:56;;;;;;;;;;;;;;;;;;5088424;28;19977;-81
2022/11/09 13:43:30;;;;;;;;;;;;;;;;;;5097215;28;19908;-81
2022/11/09 13:45:58;;;;;;;;;;;;;;;;;;5100930;28;19913;-77
2022/11/09 13:48:44;;;;;;;;;;;;;;;;;;5118406;28;19937;-77
2022/11/09 13:51:12;;;;;;;;;;;;;;;;;;5074205;28;19925;-78
2022/11/09 13:53:55;;;;;;;;;;;;;;;;;;5069854;28;19935;-79
2022/11/09 13:56:25;;;;;;;;;;;;;;;;;;5076970;28;19931;-78
2022/11/09 13:58:52;;;;;;;;;;;;;;;;;;5077748;28;20015;-79
2022/11/09 14:01:28;;;;;;;;;;;;;;;;;;5076396;28;19960;-78
2022/11/09 14:03:54;;;;;;;;;;;;;;;;;;5076760;28;19991;-78
2022/11/09 14:06:21;;;;;;;;;;;;;;;;;;5076710;28;19952;-79
2022/11/09 14:08:48;;;;;;;;;;;;;;;;;;5074542;28;19960;-79
2022/11/09 14:11:47;;;;;;;;;;;;;;;;;;5074268;28;19956;-79
2022/11/09 14:14:24;;;;;;;;;;;;;;;;;;5050813;28;19917;-80
2022/11/09 14:16:58;;;;;;;;;;;;;;;;;;5063187;28;19924;-78
2022/11/09 14:19:30;;;;;;;;;;;;;;;;;;5091196;28;19924;-78
2022/11/09 14:21:56;;;;;;;;;;;;;;;;;;5093610;28;19924;-78
2022/11/09 14:24:24;;;;;;;;;;;;;;;;;;5073889;28;19964;-79
2022/11/09 14:27:05;;;;;;;;;;;;;;;;;;5073598;28;20015;-79
2022/11/09 14:29:34;;;;;;;;;;;;;;;;;;5077870;28;19955;-77
2022/11/09 14:32:02;;;;;;;;;;;;;;;;;;5086543;28;19936;-78
2022/11/09 14:34:29;;;;;;;;;;;;;;;;;;5083483;28;19932;-80
2022/11/09 14:36:56;;;;;;;;;;;;;;;;;;5083051;28;19966;-79
2022/11/09 14:39:27;;;;;;;;;;;;;;;;;;5083978;28;20035;-79
2022/11/09 14:41:54;;;;;;;;;;;;;;;;;;5080523;28;19924;-79
2022/11/09 14:44:25;;;;;;;;;;;;;;;;;;5083335;28;20603;-78
2022/11/09 14:46:52;;;;;;;;;;;;;;;;;;5079471;28;19924;-79
2022/11/09 14:49:20;;;;;;;;;;;;;;;;;;5079355;28;19964;-79
2022/11/09 14:51:47;;;;;;;;;;;;;;;;;;5084520;28;19924;-79
2022/11/09 14:54:17;;;;;;;;;;;;;;;;;;5084653;28;19925;-80
2022/11/09 14:56:44;;;;;;;;;;;;;;;;;;5077250;28;19924;-79
2022/11/09 14:59:13;;;;;;;;;;;;;;;;;;5073807;28;19983;-79
2022/11/09 15:01:39;;;;;;;;;;;;;;;;;;5073800;28;20302;-79
2022/11/09 15:04:07;;;;;;;;;;;;;;;;;;5074069;28;20367;-79
2022/11/09 15:06:35;;;;;;;;;;;;;;;;;;5071843;28;19978;-79
2022/11/09 15:09:04;;;;;;;;;;;;;;;;;;5074526;28;19987;-79
2022/11/09 15:11:31;;;;;;;;;;;;;;;;;;5072813;28;20019;-79
2022/11/09 15:13:58;;;;;;;;;;;;;;;;;;5066541;28;20043;-78
2022/11/09 15:16:27;;;;;;;;;;;;;;;;;;5061329;28;20284;-78
2022/11/09 15:18:54;;;;;;;;;;;;;;;;;;5071741;28;20386;-79
2022/11/09 15:21:32;;;;;;;;;;;;;;;;;;5071590;28;19963;-78
2022/11/09 15:24:04;;;;;;;;;;;;;;;;;;5072348;28;20019;-78
2022/11/09 15:26:35;;;;;;;;;;;;;;;;;;5071637;28;19971;-79
2022/11/09 15:29:02;;;;;;;;;;;;;;;;;;5069621;28;19981;-79
2022/11/09 15:31:28;;;;;;;;;;;;;;;;;;5071755;28;19964;-78
2022/11/09 15:33:55;;;;;;;;;;;;;;;;;;5070626;28;19947;-78
2022/11/09 15:36:27;;;;;;;;;;;;;;;;;;5070418;28;20020;-78
2022/11/09 15:39:00;;;;;;;;;;;;;;;;;;5070393;28;19924;-79
2022/11/09 15:41:29;;;;;;;;;;;;;;;;;;5070077;28;19932;-79
2022/11/09 15:43:55;;;;;;;;;;;;;;;;;;5070313;28;20375;-78
2022/11/09 15:46:23;;;;;;;;;;;;;;;;;;5069883;28;20027;-78
2022/11/09 15:48:50;;;;;;;;;;;;;;;;;;5068222;28;20023;-79
2022/11/09 15:51:17;;;;;;;;;;;;;;;;;;5069784;28;19924;-78
2022/11/09 15:53:44;;;;;;;;;;;;;;;;;;5070470;28;19980;-79
2022/11/09 15:56:14;;;;;;;;;;;;;;;;;;5070489;28;19924;-79
2022/11/09 15:58:42;;;;;;;;;;;;;;;;;;5068621;28;19963;-79
2022/11/09 16:01:08;;;;;;;;;;;;;;;;;;5066712;28;20134;-79
2022/11/09 16:03:35;;;;;;;;;;;;;;;;;;5066933;28;20003;-79
2022/11/09 16:06:01;;;;;;;;;;;;;;;;;;5069849;28;19993;-79
2022/11/09 16:08:28;;;;;;;;;;;;;;;;;;5068417;28;19924;-78
2022/11/09 16:10:54;;;;;;;;;;;;;;;;;;5070078;28;20039;-79
2022/11/09 16:13:21;;;;;;;;;;;;;;;;;;5070262;28;20015;-79
2022/11/09 16:15:48;;;;;;;;;;;;;;;;;;5071491;28;19947;-80
2022/11/09 16:18:16;;;;;;;;;;;;;;;;;;5071733;28;19978;-79
2022/11/09 16:20:43;;;;;;;;;;;;;;;;;;5071104;28;20019;-78
2022/11/09 16:23:09;;;;;;;;;;;;;;;;;;5071341;28;20005;-78
2022/11/09 16:25:36;;;;;;;;;;;;;;;;;;5071398;28;19925;-78
2022/11/09 16:28:02;;;;;;;;;;;;;;;;;;5070658;28;19924;-79
2022/11/09 16:30:29;;;;;;;;;;;;;;;;;;5070770;28;20371;-79
2022/11/09 16:32:57;;;;;;;;;;;;;;;;;;5071058;28;19934;-79
2022/11/09 16:35:23;;;;;;;;;;;;;;;;;;5070744;28;20016;-79
2022/11/09 16:37:53;;;;;;;;;;;;;;;;;;5069960;28;19924;-79
2022/11/09 16:40:20;;;;;;;;;;;;;;;;;;5068928;28;19929;-79
2022/11/09 16:42:47;;;;;;;;;;;;;;;;;;5069954;28;19968;-79
2022/11/09 16:45:15;;;;;;;;;;;;;;;;;;5070859;28;20345;-79
2022/11/09 16:47:43;;;;;;;;;;;;;;;;;;5077734;28;20015;-79
2022/11/09 16:50:11;;;;;;;;;;;;;;;;;;5077918;28;19924;-79
2022/11/09 16:52:38;;;;;;;;;;;;;;;;;;5071126;28;20382;-78
2022/11/09 16:55:06;;;;;;;;;;;;;;;;;;5070375;28;19925;-79
2022/11/09 16:57:33;;;;;;;;;;;;;;;;;;5085872;28;20382;-79
2022/11/09 16:59:59;;;;;;;;;;;;;;;;;;5076707;28;20413;-79